createdAt,value
2023-05-15T00:00:57.171Z,990.80
2023-05-15T00:01:57.155Z,990.85
2023-05-15T00:02:57.302Z,990.80
2023-05-15T00:03:57.144Z,990.79
2023-05-15T00:04:57.180Z,990.80
2023-05-15T00:05:57.106Z,990.78
2023-05-15T00:06:57.071Z,990.77
2023-05-15T00:07:57.059Z,990.77
2023-05-15T00:08:57.041Z,990.79
2023-05-15T00:09:57.026Z,990.79
2023-05-15T00:11:56.996Z,990.78
2023-05-15T00:12:56.986Z,990.74
2023-05-15T00:13:56.974Z,990.74
2023-05-15T00:14:56.955Z,990.76
2023-05-15T00:15:56.975Z,990.73
2023-05-15T00:16:56.923Z,990.74
2023-05-15T00:17:56.959Z,990.73
2023-05-15T00:18:56.937Z,990.71
2023-05-15T00:19:56.880Z,990.72
2023-05-15T00:20:56.860Z,990.74
2023-05-15T00:21:56.848Z,990.72
2023-05-15T00:22:56.830Z,990.73
2023-05-15T00:23:56.820Z,990.70
2023-05-15T00:24:56.808Z,990.73
2023-05-15T00:25:56.809Z,990.71
2023-05-15T00:26:56.771Z,990.69
2023-05-15T00:27:56.770Z,990.71
2023-05-15T00:28:56.741Z,990.72
2023-05-15T00:29:56.732Z,990.69
2023-05-15T00:30:56.791Z,990.70
2023-05-15T00:31:56.866Z,990.69
2023-05-15T00:32:56.706Z,990.69
2023-05-15T00:33:56.671Z,990.66
2023-05-15T00:34:56.672Z,990.69
2023-05-15T00:35:56.645Z,990.66
2023-05-15T00:36:56.626Z,990.63
2023-05-15T00:37:56.616Z,990.66
2023-05-15T00:38:56.605Z,990.65
2023-05-15T00:39:56.583Z,990.62
2023-05-15T00:40:56.583Z,990.62
2023-05-15T00:41:56.554Z,990.60
2023-05-15T00:42:56.542Z,990.63
2023-05-15T00:43:56.524Z,990.63
2023-05-15T00:44:56.513Z,990.63
2023-05-15T00:45:56.501Z,990.62
2023-05-15T00:46:56.538Z,990.64
2023-05-15T00:47:56.498Z,990.66
2023-05-15T00:48:56.447Z,990.66
2023-05-15T00:49:56.439Z,990.64
2023-05-15T00:50:56.421Z,990.59
2023-05-15T00:51:56.405Z,990.63
2023-05-15T00:52:56.395Z,990.63
2023-05-15T00:53:56.448Z,990.63
2023-05-15T00:54:56.357Z,990.62
2023-05-15T00:55:56.340Z,990.59
2023-05-15T00:56:56.330Z,990.64
2023-05-15T00:57:56.329Z,990.56
2023-05-15T00:58:56.297Z,990.61
2023-05-15T00:59:56.290Z,990.55
2023-05-15T01:00:56.352Z,990.57
2023-05-15T01:01:56.273Z,990.56
2023-05-15T01:02:56.304Z,990.55
2023-05-15T01:03:56.224Z,990.50
2023-05-15T01:04:56.208Z,990.50
2023-05-15T01:05:56.196Z,990.47
2023-05-15T01:06:56.176Z,990.46
2023-05-15T01:07:56.165Z,990.46
2023-05-15T01:08:56.146Z,990.40
2023-05-15T01:09:56.136Z,990.42
2023-05-15T01:10:56.116Z,990.44
2023-05-15T01:11:56.105Z,990.46
2023-05-15T01:12:56.085Z,990.43
2023-05-15T01:13:56.087Z,990.40
2023-05-15T01:14:56.063Z,990.42
2023-05-15T01:15:56.048Z,990.37
2023-05-15T01:16:56.025Z,990.41
2023-05-15T01:17:56.096Z,990.37
2023-05-15T01:18:56.029Z,990.34
2023-05-15T01:19:56.057Z,990.38
2023-05-15T01:20:55.968Z,990.36
2023-05-15T01:21:55.949Z,990.39
2023-05-15T01:22:55.936Z,990.42
2023-05-15T01:23:55.920Z,990.41
2023-05-15T01:24:55.899Z,990.44
2023-05-15T01:25:55.885Z,990.42
2023-05-15T01:26:55.873Z,990.47
2023-05-15T01:27:55.855Z,990.40
2023-05-15T01:28:55.842Z,990.41
2023-05-15T01:29:55.836Z,990.43
2023-05-15T01:30:55.811Z,990.43
2023-05-15T01:31:55.869Z,990.43
2023-05-15T01:32:55.894Z,990.45
2023-05-15T01:33:55.764Z,990.43
2023-05-15T01:34:55.754Z,990.44
2023-05-15T01:35:55.736Z,990.40
2023-05-15T01:36:55.754Z,990.40
2023-05-15T01:37:55.732Z,990.42
2023-05-15T01:38:55.698Z,990.43
2023-05-15T01:39:55.673Z,990.39
2023-05-15T01:40:55.666Z,990.38
2023-05-15T01:41:55.642Z,990.36
2023-05-15T01:42:55.627Z,990.38
2023-05-15T01:43:55.618Z,990.39
2023-05-15T01:44:55.599Z,990.38
2023-05-15T01:45:55.612Z,990.38
2023-05-15T01:46:55.621Z,990.38
2023-05-15T01:47:55.592Z,990.41
2023-05-15T01:48:55.531Z,990.39
2023-05-15T01:49:55.511Z,990.39
2023-05-15T01:50:55.521Z,990.42
2023-05-15T01:51:55.505Z,990.40
2023-05-15T01:52:55.514Z,990.40
2023-05-15T01:53:55.459Z,990.39
2023-05-15T01:54:55.441Z,990.37
2023-05-15T01:55:55.437Z,990.36
2023-05-15T01:56:55.442Z,990.42
2023-05-15T01:57:55.408Z,990.42
2023-05-15T01:58:55.410Z,990.42
2023-05-15T01:59:55.367Z,990.45
2023-05-15T02:00:55.365Z,990.47
2023-05-15T02:01:55.365Z,990.47
2023-05-15T02:02:55.420Z,990.44
2023-05-15T02:03:55.467Z,990.43
2023-05-15T02:04:55.286Z,990.49
2023-05-15T02:05:55.268Z,990.47
2023-05-15T02:06:55.269Z,990.49
2023-05-15T02:07:55.235Z,990.49
2023-05-15T02:08:55.246Z,990.45
2023-05-15T02:09:55.209Z,990.46
2023-05-15T02:10:55.188Z,990.45
2023-05-15T02:11:55.172Z,990.43
2023-05-15T02:12:55.163Z,990.41
2023-05-15T02:13:55.143Z,990.39
2023-05-15T02:14:55.136Z,990.41
2023-05-15T02:15:55.130Z,990.41
2023-05-15T02:16:55.104Z,990.40
2023-05-15T02:17:55.112Z,990.35
2023-05-15T02:18:55.205Z,990.39
2023-05-15T02:19:55.047Z,990.34
2023-05-15T02:20:55.035Z,990.37
2023-05-15T02:21:55.018Z,990.35
2023-05-15T02:22:55.008Z,990.35
2023-05-15T02:23:54.986Z,990.37
2023-05-15T02:24:54.971Z,990.36
2023-05-15T02:25:54.959Z,990.37
2023-05-15T02:26:54.945Z,990.34
2023-05-15T02:27:54.925Z,990.33
2023-05-15T02:28:54.907Z,990.33
2023-05-15T02:29:54.895Z,990.34
2023-05-15T02:30:54.877Z,990.33
2023-05-15T02:31:54.926Z,990.34
2023-05-15T02:32:54.889Z,990.30
2023-05-15T02:33:54.829Z,990.33
2023-05-15T02:34:54.822Z,990.27
2023-05-15T02:35:54.800Z,990.27
2023-05-15T02:36:54.799Z,990.28
2023-05-15T02:37:54.773Z,990.29
2023-05-15T02:38:54.756Z,990.28
2023-05-15T02:39:54.736Z,990.25
2023-05-15T02:40:54.728Z,990.24
2023-05-15T02:41:54.717Z,990.24
2023-05-15T02:42:54.705Z,990.25
2023-05-15T02:43:54.669Z,990.24
2023-05-15T02:44:54.654Z,990.23
2023-05-15T02:45:54.687Z,990.23
2023-05-15T02:46:54.621Z,990.24
2023-05-15T02:47:54.670Z,990.23
2023-05-15T02:48:54.605Z,990.24
2023-05-15T02:49:54.576Z,990.20
2023-05-15T02:50:54.561Z,990.18
2023-05-15T02:51:54.574Z,990.18
2023-05-15T02:52:54.544Z,990.15
2023-05-15T02:53:54.511Z,990.15
2023-05-15T02:54:54.500Z,990.14
2023-05-15T02:55:54.483Z,990.16
2023-05-15T02:56:54.465Z,990.15
2023-05-15T02:57:54.447Z,990.13
2023-05-15T02:58:54.433Z,990.13
2023-05-15T02:59:54.416Z,990.16
2023-05-15T03:00:54.461Z,990.18
2023-05-15T03:01:54.384Z,990.15
2023-05-15T03:02:54.408Z,990.15
2023-05-15T03:03:54.373Z,990.12
2023-05-15T03:04:54.480Z,990.09
2023-05-15T03:05:54.322Z,990.11
2023-05-15T03:06:54.308Z,990.09
2023-05-15T03:07:54.301Z,990.06
2023-05-15T03:08:54.280Z,990.06
2023-05-15T03:09:54.260Z,990.05
2023-05-15T03:10:54.247Z,990.05
2023-05-15T03:11:54.224Z,990.02
2023-05-15T03:12:54.211Z,989.99
2023-05-15T03:13:54.197Z,989.98
2023-05-15T03:14:54.176Z,989.98
2023-05-15T03:15:54.168Z,990.03
2023-05-15T03:16:54.172Z,990.00
2023-05-15T03:17:54.168Z,989.98
2023-05-15T03:18:54.138Z,989.97
2023-05-15T03:19:54.106Z,989.99
2023-05-15T03:20:54.087Z,989.98
2023-05-15T03:21:54.081Z,989.94
2023-05-15T03:22:54.062Z,989.97
2023-05-15T03:23:54.042Z,989.97
2023-05-15T03:24:54.023Z,989.97
2023-05-15T03:25:54.005Z,989.96
2023-05-15T03:26:53.992Z,989.98
2023-05-15T03:27:53.973Z,989.97
2023-05-15T03:28:53.959Z,990.04
2023-05-15T03:29:53.946Z,990.02
2023-05-15T03:30:53.937Z,990.02
2023-05-15T03:31:54.062Z,990.01
2023-05-15T03:32:53.924Z,989.99
2023-05-15T03:33:53.876Z,990.01
2023-05-15T03:34:53.873Z,990.00
2023-05-15T03:35:53.842Z,989.98
2023-05-15T03:36:53.829Z,989.98
2023-05-15T03:37:53.823Z,989.98
2023-05-15T03:38:53.797Z,990.04
2023-05-15T03:39:53.785Z,990.04
2023-05-15T03:40:53.767Z,990.03
2023-05-15T03:41:53.750Z,990.05
2023-05-15T03:42:53.768Z,990.06
2023-05-15T03:43:53.715Z,990.05
2023-05-15T03:44:53.712Z,990.04
2023-05-15T03:45:53.706Z,990.05
2023-05-15T03:46:53.750Z,990.09
2023-05-15T03:47:53.748Z,990.09
2023-05-15T03:48:53.634Z,990.09
2023-05-15T03:49:53.622Z,990.10
2023-05-15T03:50:53.605Z,990.09
2023-05-15T03:51:53.603Z,990.13
2023-05-15T03:52:53.568Z,990.14
2023-05-15T03:53:53.553Z,990.16
2023-05-15T03:54:53.541Z,990.12
2023-05-15T03:55:53.521Z,990.16
2023-05-15T03:56:54.451Z,990.17
2023-05-15T03:57:53.492Z,990.16
2023-05-15T03:58:53.490Z,990.15
2023-05-15T03:59:53.461Z,990.14
2023-05-15T04:00:53.452Z,990.20
2023-05-15T04:02:04.280Z,990.16
2023-05-15T04:02:53.458Z,990.13
2023-05-15T04:03:53.395Z,990.16
2023-05-15T04:04:53.424Z,990.15
2023-05-15T04:05:53.363Z,990.14
2023-05-15T04:06:53.350Z,990.17
2023-05-15T04:07:53.332Z,990.13
2023-05-15T04:08:53.316Z,990.18
2023-05-15T04:09:53.298Z,990.17
2023-05-15T04:10:53.283Z,990.16
2023-05-15T04:11:53.269Z,990.17
2023-05-15T04:12:53.256Z,990.17
2023-05-15T04:13:53.243Z,990.19
2023-05-15T04:14:53.219Z,990.20
2023-05-15T04:15:53.268Z,990.20
2023-05-15T04:16:53.218Z,990.22
2023-05-15T04:17:53.248Z,990.21
2023-05-15T04:18:53.172Z,990.20
2023-05-15T04:19:53.151Z,990.20
2023-05-15T04:20:53.136Z,990.23
2023-05-15T04:21:53.148Z,990.20
2023-05-15T04:22:53.094Z,990.24
2023-05-15T04:23:53.075Z,990.22
2023-05-15T04:24:53.058Z,990.21
2023-05-15T04:25:53.048Z,990.18
2023-05-15T04:26:53.054Z,990.23
2023-05-15T04:27:53.014Z,990.20
2023-05-15T04:29:03.311Z,990.24
2023-05-15T04:29:52.978Z,990.26
2023-05-15T04:30:52.978Z,990.26
2023-05-15T04:31:52.980Z,990.25
2023-05-15T04:32:52.967Z,990.26
2023-05-15T04:33:52.926Z,990.35
2023-05-15T04:34:52.897Z,990.29
2023-05-15T04:35:52.880Z,990.26
2023-05-15T04:36:52.870Z,990.30
2023-05-15T04:37:52.852Z,990.31
2023-05-15T04:38:52.837Z,990.38
2023-05-15T04:39:52.838Z,990.38
2023-05-15T04:40:52.810Z,990.33
2023-05-15T04:41:52.788Z,990.39
2023-05-15T04:42:52.771Z,990.35
2023-05-15T04:43:52.767Z,990.34
2023-05-15T04:44:52.740Z,990.28
2023-05-15T04:45:52.797Z,990.30
2023-05-15T04:46:52.708Z,990.31
2023-05-15T04:47:52.775Z,990.32
2023-05-15T04:48:52.709Z,990.30
2023-05-15T04:49:52.668Z,990.31
2023-05-15T04:50:52.650Z,990.36
2023-05-15T04:51:52.628Z,990.33
2023-05-15T04:52:52.620Z,990.36
2023-05-15T04:53:52.647Z,990.37
2023-05-15T04:54:52.612Z,990.36
2023-05-15T04:55:52.580Z,990.36
2023-05-15T04:56:52.558Z,990.39
2023-05-15T04:57:52.535Z,990.41
2023-05-15T04:58:52.520Z,990.36
2023-05-15T04:59:52.514Z,990.38
2023-05-15T05:00:52.491Z,990.37
2023-05-15T05:01:52.474Z,990.38
2023-05-15T05:02:52.498Z,990.41
2023-05-15T05:03:52.517Z,990.37
2023-05-15T05:04:52.462Z,990.41
2023-05-15T05:05:52.411Z,990.44
2023-05-15T09:03:39.852Z,990.30
2023-05-15T09:04:39.214Z,990.26
2023-05-15T09:06:45.465Z,990.21
2023-05-15T09:07:45.285Z,990.24
2023-05-15T09:09:51.996Z,990.28
2023-05-15T09:10:52.007Z,990.25
2023-05-15T09:12:57.004Z,990.26
2023-05-15T09:13:56.934Z,990.27
2023-05-15T09:37:02.667Z,990.18
2023-05-15T09:38:02.364Z,990.23
2023-05-15T09:40:08.325Z,990.19
2023-05-15T09:41:08.283Z,990.16
2023-05-15T11:07:16.977Z,989.39
2023-05-15T11:08:16.909Z,989.44
2023-05-15T14:25:37.807Z,989.29
2023-05-15T14:26:37.357Z,989.31
2023-05-15T14:28:41.837Z,989.33
2023-05-15T14:29:41.697Z,989.34
2023-05-15T14:31:46.824Z,989.34
2023-05-15T14:32:46.681Z,989.36
2023-05-15T15:46:59.793Z,989.74
2023-05-15T15:47:59.745Z,989.75
2023-05-15T15:48:59.523Z,989.72
2023-05-15T15:49:59.472Z,989.67
2023-05-15T15:50:59.718Z,989.67
2023-05-15T15:51:59.458Z,989.69
2023-05-15T15:52:59.426Z,989.66
2023-05-15T15:53:59.415Z,989.70
2023-05-15T15:54:59.409Z,989.75
2023-05-15T15:55:59.402Z,989.76
2023-05-15T15:56:59.381Z,989.74
2023-05-15T15:57:59.392Z,989.74
2023-05-15T15:58:59.378Z,989.78
2023-05-15T15:59:59.350Z,989.70
2023-05-15T16:00:59.372Z,989.77
2023-05-15T16:01:59.328Z,989.71
2023-05-15T16:02:59.398Z,989.68
2023-05-15T16:03:59.350Z,989.65
2023-05-15T16:04:59.296Z,989.67
2023-05-15T16:06:00.464Z,989.64
2023-05-15T16:06:59.281Z,989.68
2023-05-15T16:07:59.301Z,989.69
2023-05-15T16:08:59.258Z,989.70
2023-05-15T16:10:10.715Z,989.69
2023-05-15T16:10:59.237Z,989.67
2023-05-15T16:11:59.226Z,989.68
2023-05-15T16:12:59.222Z,989.67
2023-05-15T16:13:59.207Z,989.60
2023-05-15T16:15:06.824Z,989.59
2023-05-15T16:15:59.191Z,989.55
2023-05-15T16:16:59.920Z,989.58
2023-05-15T16:17:59.190Z,989.53
2023-05-15T16:18:59.210Z,989.56
2023-05-15T16:19:59.147Z,989.61
2023-05-15T16:20:59.132Z,989.56
2023-05-15T16:21:59.128Z,989.57
2023-05-15T16:22:59.126Z,989.57
2023-05-15T16:23:59.133Z,989.59
2023-05-15T16:24:59.085Z,989.58
2023-05-15T16:25:59.091Z,989.58
2023-05-15T16:26:59.072Z,989.58
2023-05-15T16:27:59.054Z,989.58
2023-05-15T16:28:59.041Z,989.58
2023-05-15T16:29:59.032Z,989.53
2023-05-15T16:30:59.120Z,989.55
2023-05-15T16:31:59.214Z,989.58
2023-05-15T16:32:59.028Z,989.59
2023-05-15T16:33:59.862Z,989.58
2023-05-15T16:34:58.996Z,989.55
2023-05-15T16:35:58.970Z,989.54
2023-05-15T16:36:58.955Z,989.60
2023-05-15T16:37:58.944Z,989.51
2023-05-15T16:38:58.964Z,989.54
2023-05-15T16:39:59.101Z,989.52
2023-05-15T16:40:58.909Z,989.52
2023-05-15T16:41:58.909Z,989.49
2023-05-15T16:42:59.549Z,989.54
2023-05-15T16:43:58.886Z,989.54
2023-05-15T16:44:58.894Z,989.55
2023-05-15T16:46:02.233Z,989.57
2023-05-15T16:46:58.863Z,989.57
2023-05-15T16:47:58.917Z,989.60
2023-05-15T16:48:59.150Z,989.62
2023-05-15T16:49:58.868Z,989.60
2023-05-15T16:50:58.825Z,989.61
2023-05-15T16:51:58.798Z,989.64
2023-05-15T16:52:58.850Z,989.62
2023-05-15T16:53:59.179Z,989.66
2023-05-15T16:54:58.854Z,989.69
2023-05-15T16:55:59.104Z,989.69
2023-05-15T16:56:58.752Z,989.70
2023-05-15T16:57:58.775Z,989.75
2023-05-15T16:58:58.836Z,989.77
2023-05-15T16:59:58.739Z,989.73
2023-05-15T17:01:00.173Z,989.76
2023-05-15T17:01:58.711Z,989.74
2023-05-15T17:02:58.723Z,989.70
2023-05-15T17:03:58.743Z,989.71
2023-05-15T17:04:58.657Z,989.69
2023-05-15T17:05:58.636Z,989.67
2023-05-15T17:06:58.633Z,989.68
2023-05-15T17:07:58.610Z,989.72
2023-05-15T17:08:58.604Z,989.74
2023-05-15T17:10:01.032Z,989.76
2023-05-15T17:10:58.662Z,989.75
2023-05-15T17:11:58.711Z,989.73
2023-05-15T17:12:58.754Z,989.76
2023-05-15T17:13:59.563Z,989.79
2023-05-15T17:14:58.600Z,989.79
2023-05-15T17:15:58.535Z,989.81
2023-05-15T17:16:59.167Z,989.85
2023-05-15T17:17:58.520Z,989.83
2023-05-15T17:18:58.541Z,989.84
2023-05-15T17:19:59.312Z,989.83
2023-05-15T17:20:59.035Z,989.83
2023-05-15T17:21:58.693Z,989.85
2023-05-15T17:22:58.452Z,989.85
2023-05-15T17:23:59.296Z,989.86
2023-05-15T17:24:58.445Z,989.84
2023-05-15T17:25:59.086Z,989.88
2023-05-15T17:26:58.562Z,989.90
2023-05-15T17:27:58.386Z,989.94
2023-05-15T17:28:58.401Z,989.86
2023-05-15T17:29:59.028Z,989.84
2023-05-15T17:30:58.358Z,989.87
2023-05-15T17:31:58.373Z,989.88
2023-05-15T17:32:58.343Z,989.89
2023-05-15T17:33:58.335Z,989.91
2023-05-15T17:34:58.688Z,989.95
2023-05-15T17:35:58.736Z,989.93
2023-05-15T17:36:58.186Z,989.96
2023-05-15T17:37:58.270Z,989.95
2023-05-15T17:38:58.257Z,989.95
2023-05-15T17:39:58.251Z,989.99
2023-05-15T17:40:58.321Z,989.97
2023-05-15T17:42:00.868Z,989.95
2023-05-15T17:43:01.693Z,989.97
2023-05-15T17:44:12.760Z,990.03
2023-05-15T17:44:58.112Z,989.99
2023-05-15T17:45:58.280Z,989.98
2023-05-15T17:46:58.214Z,990.01
2023-05-15T17:48:00.758Z,990.02
2023-05-15T17:48:58.464Z,990.06
2023-05-15T17:49:58.128Z,990.04
2023-05-15T17:50:58.191Z,990.04
2023-05-15T17:51:58.134Z,990.01
2023-05-15T17:52:58.113Z,990.03
2023-05-15T17:53:58.085Z,990.01
2023-05-15T17:54:58.094Z,990.07
2023-05-15T17:55:58.061Z,990.07
2023-05-15T17:56:58.747Z,990.05
2023-05-15T17:57:58.045Z,990.08
2023-05-15T17:58:58.054Z,990.05
2023-05-15T17:59:58.041Z,990.09
2023-05-15T18:00:58.807Z,990.07
2023-05-15T18:01:58.152Z,990.09
2023-05-15T18:02:58.284Z,990.07
2023-05-15T18:03:58.808Z,990.06
2023-05-15T18:04:58.759Z,990.09
2023-05-15T18:05:57.966Z,990.15
2023-05-15T18:06:57.940Z,990.15
2023-05-15T18:07:57.927Z,990.14
2023-05-15T18:08:58.494Z,990.13
2023-05-15T18:09:57.893Z,990.12
2023-05-15T18:10:57.887Z,990.14
2023-05-15T18:11:57.881Z,990.16
2023-05-15T18:12:58.776Z,990.21
2023-05-15T18:13:57.855Z,990.19
2023-05-15T18:14:57.832Z,990.27
2023-05-15T18:15:57.874Z,990.30
2023-05-15T18:16:57.899Z,990.35
2023-05-15T18:17:57.825Z,990.36
2023-05-15T18:18:57.831Z,990.34
2023-05-15T18:19:57.784Z,990.37
2023-05-15T18:20:57.787Z,990.43
2023-05-15T18:21:57.753Z,990.43
2023-05-15T18:22:57.768Z,990.44
2023-05-15T18:23:57.742Z,990.47
2023-05-15T18:24:57.720Z,990.44
2023-05-15T18:25:57.710Z,990.47
2023-05-15T18:26:57.724Z,990.48
2023-05-15T18:27:57.700Z,990.46
2023-05-15T18:28:57.664Z,990.48
2023-05-15T18:29:57.674Z,990.49
2023-05-15T18:30:57.645Z,990.51
2023-05-15T18:31:57.785Z,990.48
2023-05-15T18:32:57.659Z,990.48
2023-05-15T18:33:57.628Z,990.49
2023-05-15T18:34:57.616Z,990.48
2023-05-15T18:35:58.273Z,990.49
2023-05-15T18:36:57.624Z,990.51
2023-05-15T18:37:57.600Z,990.46
2023-05-15T18:38:57.556Z,990.47
2023-05-15T18:39:57.542Z,990.49
2023-05-15T18:40:57.539Z,990.48
2023-05-15T18:41:57.503Z,990.51
2023-05-15T18:42:57.501Z,990.49
2023-05-15T18:43:57.477Z,990.51
2023-05-15T18:44:57.474Z,990.48
2023-05-15T18:45:57.455Z,990.48
2023-05-15T18:46:57.479Z,990.50
2023-05-15T18:47:57.493Z,990.46
2023-05-15T18:48:57.426Z,990.45
2023-05-15T18:49:57.408Z,990.54
2023-05-15T18:50:57.399Z,990.52
2023-05-15T18:51:57.381Z,990.52
2023-05-15T18:52:57.382Z,990.54
2023-05-15T18:53:57.357Z,990.55
2023-05-15T18:54:57.364Z,990.54
2023-05-15T18:55:57.348Z,990.60
2023-05-15T18:56:57.328Z,990.59
2023-05-15T18:57:57.313Z,990.65
2023-05-15T18:58:57.301Z,990.65
2023-05-15T18:59:57.297Z,990.63
2023-05-15T19:00:57.832Z,990.67
2023-05-15T19:01:57.325Z,990.69
2023-05-15T19:02:57.341Z,990.69
2023-05-15T19:03:57.234Z,990.73
2023-05-15T19:04:57.233Z,990.70
2023-05-15T19:05:57.211Z,990.71
2023-05-15T19:06:57.218Z,990.69
2023-05-15T19:07:57.206Z,990.73
2023-05-15T19:08:57.240Z,990.78
2023-05-15T19:09:57.160Z,990.81
2023-05-15T19:10:58.641Z,990.78
2023-05-15T19:11:57.131Z,990.84
2023-05-15T19:12:57.138Z,990.84
2023-05-15T19:13:57.163Z,990.85
2023-05-15T19:14:57.194Z,990.91
2023-05-15T19:15:57.098Z,990.89
2023-05-15T19:16:57.227Z,990.89
2023-05-15T19:17:57.102Z,990.88
2023-05-15T19:18:57.091Z,990.92
2023-05-15T19:19:57.056Z,990.89
2023-05-15T19:20:57.031Z,990.93
2023-05-15T19:21:57.008Z,990.88
2023-05-15T19:22:56.992Z,990.93
2023-05-15T19:23:56.978Z,990.92
2023-05-15T19:24:56.966Z,990.91
2023-05-15T19:25:56.948Z,990.91
2023-05-15T19:26:56.945Z,990.94
2023-05-15T19:27:56.828Z,990.95
2023-05-15T19:28:56.917Z,990.92
2023-05-15T19:29:56.902Z,990.97
2023-05-15T19:30:56.887Z,990.92
2023-05-15T19:31:56.930Z,990.94
2023-05-15T19:32:56.891Z,990.95
2023-05-15T19:33:56.925Z,990.93
2023-05-15T19:34:56.839Z,990.94
2023-05-15T19:35:56.817Z,990.92
2023-05-15T19:36:56.807Z,990.94
2023-05-15T19:37:56.796Z,990.96
2023-05-15T19:38:56.813Z,990.96
2023-05-15T19:39:56.820Z,990.97
2023-05-15T19:40:56.766Z,990.96
2023-05-15T19:41:57.318Z,990.99
2023-05-15T19:42:56.743Z,991.01
2023-05-15T19:43:56.708Z,990.98
2023-05-15T19:44:56.737Z,991.03
2023-05-15T19:45:56.761Z,991.05
2023-05-15T19:46:56.690Z,991.04
2023-05-15T19:47:56.713Z,991.03
2023-05-15T19:48:56.663Z,991.02
2023-05-15T19:49:56.641Z,991.06
2023-05-15T19:50:56.621Z,991.04
2023-05-15T19:51:56.623Z,991.05
2023-05-15T19:52:56.589Z,991.06
2023-05-15T19:53:56.590Z,991.06
2023-05-15T19:54:56.564Z,991.06
2023-05-15T19:55:56.560Z,991.05
2023-05-15T19:56:57.311Z,991.06
2023-05-15T19:57:56.541Z,991.04
2023-05-15T19:58:56.527Z,991.09
2023-05-15T19:59:56.502Z,991.06
2023-05-15T20:00:56.505Z,991.11
2023-05-15T20:01:56.577Z,991.11
2023-05-15T20:02:56.551Z,991.10
2023-05-15T20:03:56.599Z,991.13
2023-05-15T20:04:56.440Z,991.12
2023-05-15T20:05:56.416Z,991.11
2023-05-15T20:06:56.410Z,991.12
2023-05-15T20:07:56.384Z,991.14
2023-05-15T20:08:56.446Z,991.13
2023-05-15T20:09:56.369Z,991.12
2023-05-15T20:10:56.352Z,991.09
2023-05-15T20:11:56.367Z,991.13
2023-05-15T20:12:56.350Z,991.16
2023-05-15T20:13:56.314Z,991.16
2023-05-15T20:14:56.294Z,991.15
2023-05-15T20:15:56.355Z,991.14
2023-05-15T20:16:56.281Z,991.16
2023-05-15T20:17:56.282Z,991.19
2023-05-15T20:18:56.335Z,991.20
2023-05-15T20:19:56.236Z,991.21
2023-05-15T20:20:56.332Z,991.24
2023-05-15T20:21:56.207Z,991.20
2023-05-15T20:22:56.187Z,991.20
2023-05-15T20:23:56.089Z,991.24
2023-05-15T20:24:56.188Z,991.25
2023-05-15T20:25:56.173Z,991.23
2023-05-15T20:26:56.159Z,991.24
2023-05-15T20:27:56.116Z,991.24
2023-05-15T20:28:56.603Z,991.24
2023-05-15T20:29:56.097Z,991.22
2023-05-15T20:30:56.079Z,991.18
2023-05-15T20:31:56.098Z,991.21
2023-05-15T20:32:56.134Z,991.21
2023-05-15T20:33:56.033Z,991.20
2023-05-15T20:34:56.020Z,991.18
2023-05-15T20:35:56.003Z,991.21
2023-05-15T20:36:55.992Z,991.17
2023-05-15T20:37:55.979Z,991.21
2023-05-15T20:38:55.967Z,991.25
2023-05-15T20:39:55.951Z,991.29
2023-05-15T20:40:55.937Z,991.31
2023-05-15T20:41:55.922Z,991.32
2023-05-15T20:42:55.926Z,991.31
2023-05-15T20:43:55.893Z,991.35
2023-05-15T20:44:55.891Z,991.28
2023-05-15T20:45:55.948Z,991.30
2023-05-15T20:46:55.852Z,991.26
2023-05-15T20:47:55.890Z,991.23
2023-05-15T20:48:55.830Z,991.25
2023-05-15T20:49:55.813Z,991.29
2023-05-15T20:50:55.803Z,991.24
2023-05-15T20:51:55.818Z,991.26
2023-05-15T20:52:55.808Z,991.27
2023-05-15T20:53:55.760Z,991.27
2023-05-15T20:54:55.761Z,991.26
2023-05-15T20:55:55.759Z,991.23
2023-05-15T20:56:55.730Z,991.24
2023-05-15T20:57:55.706Z,991.24
2023-05-15T20:58:58.249Z,991.24
2023-05-15T20:59:55.683Z,991.21
2023-05-15T21:00:55.691Z,991.25
2023-05-15T21:01:55.655Z,991.23
2023-05-15T21:02:55.761Z,991.22
2023-05-15T21:03:55.678Z,991.27
2023-05-15T21:04:55.616Z,991.28
2023-05-15T21:05:57.269Z,991.23
2023-05-15T21:06:55.596Z,991.27
2023-05-15T21:07:55.566Z,991.26
2023-05-15T21:08:55.569Z,991.24
2023-05-15T21:09:55.541Z,991.25
2023-05-15T21:10:55.601Z,991.24
2023-05-15T21:11:55.514Z,991.23
2023-05-15T21:12:57.749Z,991.21
2023-05-15T21:13:55.488Z,991.20
2023-05-15T21:14:55.481Z,991.25
2023-05-15T21:15:55.468Z,991.18
2023-05-15T21:16:55.471Z,991.20
2023-05-15T21:17:55.490Z,991.16
2023-05-15T21:18:55.428Z,991.15
2023-05-15T21:19:55.417Z,991.12
2023-05-15T21:20:55.397Z,991.16
2023-05-15T21:21:55.371Z,991.15
2023-05-15T21:22:55.364Z,991.21
2023-05-15T21:23:55.348Z,991.18
2023-05-15T21:24:55.339Z,991.15
2023-05-15T21:25:55.316Z,991.19
2023-05-15T21:26:55.304Z,991.21
2023-05-15T21:27:55.294Z,991.20
2023-05-15T21:28:55.281Z,991.23
2023-05-15T21:29:55.260Z,991.18
2023-05-15T21:30:55.255Z,991.17
2023-05-15T21:31:55.243Z,991.19
2023-05-15T21:32:55.228Z,991.23
2023-05-15T21:33:55.209Z,991.21
2023-05-15T21:34:55.189Z,991.22
2023-05-15T21:35:55.179Z,991.18
2023-05-15T21:36:55.213Z,991.20
2023-05-15T21:37:55.154Z,991.16
2023-05-15T21:38:55.151Z,991.19
2023-05-15T21:39:55.120Z,991.20
2023-05-15T21:40:55.108Z,991.22
2023-05-15T21:41:55.099Z,991.25
2023-05-15T21:42:55.081Z,991.29
2023-05-15T21:43:55.068Z,991.32
2023-05-15T21:44:55.053Z,991.29
2023-05-15T21:45:55.038Z,991.30
2023-05-15T21:46:55.070Z,991.31
2023-05-15T21:47:55.039Z,991.34
2023-05-15T21:48:55.002Z,991.37
2023-05-15T21:49:54.980Z,991.29
2023-05-15T21:50:54.969Z,991.32
2023-05-15T21:51:54.955Z,991.36
2023-05-15T21:52:54.940Z,991.31
2023-05-15T21:53:54.934Z,991.32
2023-05-15T21:54:54.922Z,991.35
2023-05-15T21:55:54.904Z,991.37
2023-05-15T21:56:54.888Z,991.34
2023-05-15T21:57:54.871Z,991.38
2023-05-15T21:58:54.858Z,991.39
2023-05-15T21:59:54.852Z,991.42
2023-05-15T22:00:54.828Z,991.43
2023-05-15T22:01:54.843Z,991.46
2023-05-15T22:02:54.870Z,991.43
2023-05-15T22:03:54.831Z,991.45
2023-05-15T22:04:54.773Z,991.44
2023-05-15T22:05:54.764Z,991.41
2023-05-15T22:06:54.751Z,991.43
2023-05-15T22:07:54.732Z,991.40
2023-05-15T22:08:54.722Z,991.41
2023-05-15T22:09:54.702Z,991.42
2023-05-15T22:10:54.692Z,991.45
2023-05-15T22:11:54.672Z,991.45
2023-05-15T22:12:54.667Z,991.48
2023-05-15T22:13:54.672Z,991.46
2023-05-15T22:14:58.861Z,991.48
2023-05-15T22:15:54.699Z,991.51
2023-05-15T22:16:54.635Z,991.52
2023-05-15T22:17:54.661Z,991.51
2023-05-15T22:18:54.606Z,991.52
2023-05-15T22:19:54.568Z,991.49
2023-05-15T22:20:54.552Z,991.55
2023-05-15T22:21:54.537Z,991.52
2023-05-15T22:22:54.522Z,991.55
2023-05-15T22:23:54.507Z,991.54
2023-05-15T22:24:54.493Z,991.53
2023-05-15T22:25:54.483Z,991.55
2023-05-15T22:26:54.471Z,991.54
2023-05-15T22:27:54.470Z,991.51
2023-05-15T22:28:54.443Z,991.55
2023-05-15T22:29:54.425Z,991.54
2023-05-15T22:30:54.410Z,991.56
2023-05-15T22:31:54.496Z,991.55
2023-05-15T22:32:54.446Z,991.54
2023-05-15T22:33:54.374Z,991.55
2023-05-15T22:34:54.357Z,991.55
2023-05-15T22:35:54.356Z,991.54
2023-05-15T22:37:54.316Z,991.56
2023-05-15T22:38:54.300Z,991.59
2023-05-15T22:39:54.287Z,991.61
2023-05-15T22:40:54.278Z,991.64
2023-05-15T22:41:54.260Z,991.62
2023-05-15T22:42:54.251Z,991.65
2023-05-15T22:43:54.238Z,991.62
2023-05-15T22:44:54.219Z,991.68
2023-05-15T22:45:54.284Z,991.67
2023-05-15T22:46:54.194Z,991.69
2023-05-15T22:47:54.213Z,991.70
2023-05-15T22:48:54.170Z,991.71
2023-05-15T22:49:54.152Z,991.73
2023-05-15T22:50:54.134Z,991.77